URO661 EGHH-LOWW
Flight info
| Callsign | URO661 |
|---|---|
| Flight time | 1h 54m |
| Altitude | 39000 |
| Route | SAM Y8 GWC N16 BIG UL9 KONAN DCT KOK DCT DENOX DCT REMBA UL607 SPI DCT GUBAX DCT BARSU DCT EKSOS DCT LULAR DCT RUDAP DCT BUDEX BUDEX2W |
| Aircraft | A346/H-SDE2E3FGHIJ3J4J5M1RWXY/LB1D1 |
Departure
| Time | 2026-04-20 19:21 |
|---|---|
| Airport | Bournemouth Airport (EGHH) |
Arrival
| Time | 2026-04-20 21:15 |
|---|---|
| Airport | Vienna International Airport (LOWW) |
| Time | Latitude | Longitude | Altitude | Speed | Heading |
|---|---|---|---|---|---|
| 2026-04-20 18:27 | 50.77769 | -1.84068 | 54 ft | 0 kts | 284° |
| 2026-04-20 19:15 | 50.77770 | -1.84070 | 54 ft | 1 kts | 284° |
| 2026-04-20 19:15 | 50.77775 | -1.84095 | 51 ft | 4 kts | 290° |
| 2026-04-20 19:15 | 50.77791 | -1.84149 | 52 ft | 7 kts | 298° |
| 2026-04-20 19:15 | 50.77821 | -1.84230 | 50 ft | 10 kts | 301° |
| 2026-04-20 19:16 | 50.77864 | -1.84342 | 49 ft | 13 kts | 301° |
| 2026-04-20 19:16 | 50.77903 | -1.84449 | 52 ft | 9 kts | 300° |
| 2026-04-20 19:16 | 50.77934 | -1.84502 | 52 ft | 5 kts | 357° |
| 2026-04-20 19:16 | 50.77972 | -1.84450 | 52 ft | 10 kts | 64° |
| 2026-04-20 19:17 | 50.77994 | -1.84332 | 51 ft | 13 kts | 75° |
| 2026-04-20 19:17 | 50.78018 | -1.84183 | 50 ft | 15 kts | 76° |
| 2026-04-20 19:17 | 50.78048 | -1.84002 | 50 ft | 18 kts | 75° |
| 2026-04-20 19:17 | 50.78082 | -1.83797 | 52 ft | 21 kts | 75° |
| 2026-04-20 19:18 | 50.78120 | -1.83569 | 53 ft | 22 kts | 75° |
| 2026-04-20 19:18 | 50.78161 | -1.83322 | 48 ft | 24 kts | 75° |
| 2026-04-20 19:18 | 50.78205 | -1.83053 | 50 ft | 25 kts | 75° |
| 2026-04-20 19:18 | 50.78231 | -1.82892 | 49 ft | 10 kts | 82° |
| 2026-04-20 19:19 | 50.78222 | -1.82812 | 48 ft | 3 kts | 111° |
| 2026-04-20 19:19 | 50.78215 | -1.82778 | 52 ft | 4 kts | 102° |
| 2026-04-20 19:19 | 50.78221 | -1.82735 | 52 ft | 5 kts | 54° |
| 2026-04-20 19:19 | 50.78241 | -1.82717 | 51 ft | 2 kts | 5° |
| 2026-04-20 19:20 | 50.78250 | -1.82725 | 52 ft | 1 kts | 302° |
| 2026-04-20 19:20 | 50.78250 | -1.82734 | 52 ft | 1 kts | 271° |
| 2026-04-20 19:20 | 50.78250 | -1.82759 | 52 ft | 3 kts | 262° |
| 2026-04-20 19:20 | 50.78249 | -1.82767 | 52 ft | 0 kts | 260° |
| 2026-04-20 19:21 | 50.78188 | -1.83170 | 51 ft | 86 kts | 255° |
| 2026-04-20 19:21 | 50.77957 | -1.84546 | 52 ft | 168 kts | 255° |
| 2026-04-20 19:21 | 50.77673 | -1.86501 | 742 ft | 182 kts | 255° |
| 2026-04-20 19:21 | 50.77394 | -1.88399 | 1633 ft | 179 kts | 256° |
| 2026-04-20 19:22 | 50.77098 | -1.90370 | 2285 ft | 190 kts | 252° |
| 2026-04-20 19:22 | 50.76365 | -1.92146 | 2780 ft | 201 kts | 214° |
| 2026-04-20 19:22 | 50.75031 | -1.92881 | 3261 ft | 210 kts | 176° |
| 2026-04-20 19:22 | 50.73654 | -1.92222 | 3781 ft | 216 kts | 141° |
| 2026-04-20 19:23 | 50.72703 | -1.90345 | 4278 ft | 227 kts | 108° |
| 2026-04-20 19:23 | 50.72603 | -1.87820 | 4805 ft | 242 kts | 71° |
| 2026-04-20 19:23 | 50.73436 | -1.85469 | 5677 ft | 248 kts | 57° |
| 2026-04-20 19:23 | 50.74062 | -1.82909 | 6610 ft | 255 kts | 81° |
| 2026-04-20 19:24 | 50.74172 | -1.80105 | 7474 ft | 262 kts | 85° |
| 2026-04-20 19:24 | 50.74265 | -1.77186 | 8287 ft | 270 kts | 84° |
| 2026-04-20 19:24 | 50.74439 | -1.74182 | 9107 ft | 277 kts | 81° |
| 2026-04-20 19:24 | 50.74688 | -1.71113 | 9947 ft | 284 kts | 79° |
| 2026-04-20 19:25 | 50.74990 | -1.67982 | 10697 ft | 293 kts | 78° |
| 2026-04-20 19:25 | 50.75334 | -1.64757 | 11221 ft | 309 kts | 78° |
| 2026-04-20 19:25 | 50.75720 | -1.61317 | 11678 ft | 327 kts | 78° |
| 2026-04-20 19:25 | 50.76138 | -1.57686 | 12124 ft | 345 kts | 78° |
| 2026-04-20 19:26 | 50.76586 | -1.53843 | 12565 ft | 363 kts | 78° |
| 2026-04-20 19:26 | 50.77057 | -1.49814 | 12959 ft | 381 kts | 78° |
| 2026-04-20 19:26 | 50.77547 | -1.45613 | 13527 ft | 393 kts | 78° |
| 2026-04-20 19:26 | 50.78045 | -1.41326 | 14309 ft | 398 kts | 78° |
| 2026-04-20 19:27 | 50.78547 | -1.36980 | 15078 ft | 403 kts | 77° |
| 2026-04-20 19:27 | 50.78881 | -1.34078 | 15549 ft | 407 kts | 77° |
| 2026-04-20 19:27 | 50.79393 | -1.29637 | 16225 ft | 413 kts | 77° |
| 2026-04-20 19:27 | 50.79913 | -1.25119 | 16920 ft | 419 kts | 77° |
| 2026-04-20 19:28 | 50.80438 | -1.20547 | 17598 ft | 425 kts | 76° |
| 2026-04-20 19:28 | 50.80969 | -1.15911 | 18273 ft | 431 kts | 76° |
| 2026-04-20 19:28 | 50.81507 | -1.11208 | 18892 ft | 437 kts | 76° |
| 2026-04-20 19:28 | 50.82053 | -1.06423 | 19467 ft | 442 kts | 76° |
| 2026-04-20 19:29 | 50.82603 | -1.01588 | 20046 ft | 448 kts | 76° |
| 2026-04-20 19:29 | 50.83148 | -0.96763 | 20613 ft | 453 kts | 76° |
| 2026-04-20 19:29 | 50.83703 | -0.91815 | 21207 ft | 459 kts | 76° |
| 2026-04-20 19:29 | 50.84260 | -0.86796 | 21750 ft | 465 kts | 76° |
| 2026-04-20 19:30 | 50.84844 | -0.81714 | 22298 ft | 469 kts | 73° |
| 2026-04-20 19:30 | 50.85869 | -0.76805 | 22802 ft | 467 kts | 60° |
| 2026-04-20 19:30 | 50.87515 | -0.72408 | 23389 ft | 461 kts | 47° |
| 2026-04-20 19:30 | 50.89623 | -0.68606 | 23968 ft | 458 kts | 39° |
| 2026-04-20 19:31 | 50.91867 | -0.64974 | 24450 ft | 462 kts | 38° |
| 2026-04-20 19:31 | 50.94143 | -0.61342 | 24904 ft | 466 kts | 38° |
| 2026-04-20 19:31 | 50.96433 | -0.57659 | 25359 ft | 470 kts | 38° |
| 2026-04-20 19:31 | 50.98731 | -0.53923 | 25842 ft | 475 kts | 38° |
| 2026-04-20 19:32 | 51.01006 | -0.50189 | 26303 ft | 479 kts | 38° |
| 2026-04-20 19:32 | 51.03334 | -0.46348 | 26777 ft | 483 kts | 38° |
| 2026-04-20 19:32 | 51.05671 | -0.42477 | 27208 ft | 487 kts | 38° |
| 2026-04-20 19:32 | 51.08034 | -0.38552 | 27667 ft | 491 kts | 38° |
| 2026-04-20 19:33 | 51.10406 | -0.34604 | 28113 ft | 495 kts | 38° |
| 2026-04-20 19:33 | 51.12796 | -0.30619 | 28542 ft | 499 kts | 38° |
| 2026-04-20 19:33 | 51.15200 | -0.26602 | 29090 ft | 499 kts | 38° |
| 2026-04-20 19:33 | 51.17589 | -0.22602 | 29776 ft | 498 kts | 38° |
| 2026-04-20 19:34 | 51.19950 | -0.18644 | 30421 ft | 497 kts | 38° |
| 2026-04-20 19:34 | 51.22334 | -0.14647 | 30959 ft | 496 kts | 38° |
| 2026-04-20 19:34 | 51.24712 | -0.10659 | 31508 ft | 495 kts | 38° |
| 2026-04-20 19:34 | 51.26955 | -0.06433 | 32032 ft | 503 kts | 47° |
| 2026-04-20 19:35 | 51.28801 | -0.01641 | 32582 ft | 511 kts | 57° |
| 2026-04-20 19:35 | 51.30184 | 0.03638 | 33203 ft | 517 kts | 67° |
| 2026-04-20 19:35 | 51.31048 | 0.09254 | 33781 ft | 521 kts | 77° |
| 2026-04-20 19:35 | 51.31354 | 0.15001 | 34352 ft | 524 kts | 87° |
| 2026-04-20 19:36 | 51.31094 | 0.20825 | 34861 ft | 524 kts | 97° |
| 2026-04-20 19:36 | 51.30419 | 0.26533 | 35397 ft | 521 kts | 101° |
| 2026-04-20 19:36 | 51.29656 | 0.32195 | 35977 ft | 517 kts | 101° |
| 2026-04-20 19:36 | 51.28910 | 0.37798 | 36538 ft | 512 kts | 101° |
| 2026-04-20 19:37 | 51.28191 | 0.43378 | 37073 ft | 508 kts | 100° |
| 2026-04-20 19:37 | 51.27496 | 0.48891 | 37586 ft | 504 kts | 100° |
| 2026-04-20 19:37 | 51.26807 | 0.54400 | 38014 ft | 502 kts | 100° |
| 2026-04-20 19:37 | 51.26120 | 0.59888 | 38323 ft | 501 kts | 100° |
| 2026-04-20 19:38 | 51.25429 | 0.65349 | 38577 ft | 502 kts | 101° |
| 2026-04-20 19:38 | 51.24739 | 0.70758 | 38817 ft | 502 kts | 101° |
| 2026-04-20 19:38 | 51.24039 | 0.76239 | 39049 ft | 502 kts | 101° |
| 2026-04-20 19:38 | 51.23339 | 0.81717 | 39235 ft | 502 kts | 101° |
| 2026-04-20 19:39 | 51.22636 | 0.87192 | 39316 ft | 503 kts | 101° |
| 2026-04-20 19:39 | 51.21220 | 0.98157 | 39283 ft | 504 kts | 101° |
| 2026-04-20 19:40 | 51.19792 | 1.09134 | 39278 ft | 505 kts | 101° |
| 2026-04-20 19:40 | 51.18346 | 1.20146 | 39275 ft | 505 kts | 101° |
| 2026-04-20 19:41 | 51.16911 | 1.31059 | 39273 ft | 505 kts | 100° |
| 2026-04-20 19:41 | 51.15933 | 1.42182 | 39271 ft | 505 kts | 94° |
| 2026-04-20 19:42 | 51.15398 | 1.53349 | 39273 ft | 505 kts | 93° |
| 2026-04-20 19:42 | 51.14870 | 1.64516 | 39271 ft | 504 kts | 93° |
| 2026-04-20 19:43 | 51.14324 | 1.75605 | 39271 ft | 504 kts | 94° |
| 2026-04-20 19:43 | 51.13758 | 1.86786 | 39266 ft | 504 kts | 94° |
| 2026-04-20 19:44 | 51.13179 | 1.97945 | 39260 ft | 505 kts | 94° |
| 2026-04-20 19:44 | 51.12616 | 2.09063 | 39257 ft | 505 kts | 94° |
| 2026-04-20 19:45 | 51.12061 | 2.20238 | 39256 ft | 505 kts | 94° |
| 2026-04-20 19:45 | 51.11495 | 2.31339 | 39258 ft | 505 kts | 94° |
| 2026-04-20 19:46 | 51.10912 | 2.42513 | 39259 ft | 505 kts | 94° |
| 2026-04-20 19:46 | 51.10318 | 2.53684 | 39257 ft | 505 kts | 94° |
| 2026-04-20 19:47 | 51.09572 | 2.64776 | 39257 ft | 505 kts | 98° |
| 2026-04-20 19:47 | 51.08129 | 2.75732 | 39253 ft | 506 kts | 103° |
| 2026-04-20 19:48 | 51.06445 | 2.86633 | 39251 ft | 506 kts | 103° |
| 2026-04-20 19:48 | 51.04753 | 2.97526 | 39252 ft | 506 kts | 103° |
| 2026-04-20 19:49 | 51.03068 | 3.08360 | 39251 ft | 506 kts | 103° |
| 2026-04-20 19:49 | 51.01370 | 3.19228 | 39241 ft | 506 kts | 103° |
| 2026-04-20 19:50 | 50.99667 | 3.30055 | 39242 ft | 506 kts | 103° |
| 2026-04-20 19:50 | 50.97945 | 3.40929 | 39239 ft | 506 kts | 103° |
| 2026-04-20 19:51 | 50.96225 | 3.51725 | 39231 ft | 506 kts | 103° |
| 2026-04-20 19:51 | 50.94482 | 3.62596 | 39231 ft | 506 kts | 103° |
| 2026-04-20 19:52 | 50.92728 | 3.73465 | 39229 ft | 506 kts | 104° |
| 2026-04-20 19:52 | 50.90980 | 3.84223 | 39231 ft | 506 kts | 104° |
| 2026-04-20 19:53 | 50.89210 | 3.95044 | 39229 ft | 506 kts | 104° |
| 2026-04-20 19:53 | 50.87206 | 4.05800 | 39229 ft | 506 kts | 109° |
| 2026-04-20 19:54 | 50.84725 | 4.16178 | 39225 ft | 506 kts | 110° |
| 2026-04-20 19:54 | 50.82189 | 4.26592 | 39224 ft | 506 kts | 110° |
| 2026-04-20 19:55 | 50.79641 | 4.37040 | 39226 ft | 506 kts | 110° |
| 2026-04-20 19:55 | 50.77090 | 4.47472 | 39222 ft | 509 kts | 111° |
| 2026-04-20 19:56 | 50.74952 | 4.56178 | 39221 ft | 509 kts | 111° |
| 2026-04-20 19:56 | 50.71952 | 4.68335 | 39227 ft | 509 kts | 111° |
| 2026-04-20 19:57 | 50.69381 | 4.78701 | 39217 ft | 509 kts | 111° |
| 2026-04-20 19:57 | 50.66774 | 4.89174 | 39208 ft | 509 kts | 110° |
| 2026-04-20 19:58 | 50.64499 | 4.99701 | 39212 ft | 509 kts | 107° |
| 2026-04-20 19:58 | 50.62320 | 5.10344 | 39207 ft | 508 kts | 107° |
| 2026-04-20 19:59 | 50.60143 | 5.20901 | 39213 ft | 508 kts | 107° |
| 2026-04-20 19:59 | 50.57941 | 5.31512 | 39208 ft | 509 kts | 107° |
| 2026-04-20 20:00 | 50.55726 | 5.42121 | 39200 ft | 509 kts | 107° |
| 2026-04-20 20:00 | 50.53514 | 5.52649 | 39203 ft | 509 kts | 108° |
| 2026-04-20 20:01 | 50.51569 | 5.63345 | 39208 ft | 507 kts | 102° |
| 2026-04-20 20:01 | 50.50357 | 5.74303 | 39196 ft | 507 kts | 96° |
| 2026-04-20 20:02 | 50.49394 | 5.85267 | 39195 ft | 508 kts | 96° |
| 2026-04-20 20:02 | 50.48412 | 5.96305 | 39187 ft | 508 kts | 96° |
| 2026-04-20 20:03 | 50.47417 | 6.07252 | 39192 ft | 509 kts | 97° |
| 2026-04-20 20:03 | 50.46401 | 6.18271 | 39184 ft | 509 kts | 97° |
| 2026-04-20 20:04 | 50.45377 | 6.29254 | 39183 ft | 508 kts | 97° |
| 2026-04-20 20:04 | 50.44052 | 6.40222 | 39178 ft | 509 kts | 101° |
| 2026-04-20 20:05 | 50.42536 | 6.51130 | 39176 ft | 509 kts | 101° |
| 2026-04-20 20:05 | 50.41045 | 6.61950 | 39171 ft | 509 kts | 101° |
| 2026-04-20 20:06 | 50.39557 | 6.72839 | 39167 ft | 509 kts | 101° |
| 2026-04-20 20:06 | 50.38068 | 6.83722 | 39167 ft | 509 kts | 101° |
| 2026-04-20 20:07 | 50.36569 | 6.94609 | 39182 ft | 509 kts | 101° |
| 2026-04-20 20:07 | 50.35070 | 7.05413 | 39170 ft | 507 kts | 101° |
| 2026-04-20 20:08 | 50.33559 | 7.16228 | 39169 ft | 507 kts | 101° |
| 2026-04-20 20:08 | 50.32037 | 7.27048 | 39166 ft | 507 kts | 101° |
| 2026-04-20 20:09 | 50.30504 | 7.37857 | 39167 ft | 507 kts | 101° |
| 2026-04-20 20:09 | 50.28972 | 7.48590 | 39167 ft | 507 kts | 101° |
| 2026-04-20 20:10 | 50.27420 | 7.59385 | 39171 ft | 507 kts | 101° |
| 2026-04-20 20:10 | 50.25870 | 7.70095 | 39169 ft | 507 kts | 101° |
| 2026-04-20 20:11 | 50.24293 | 7.80909 | 39169 ft | 507 kts | 102° |
| 2026-04-20 20:11 | 50.22724 | 7.91594 | 39175 ft | 506 kts | 102° |
| 2026-04-20 20:12 | 50.21136 | 8.02334 | 39173 ft | 506 kts | 102° |
| 2026-04-20 20:12 | 50.19809 | 8.11254 | 39176 ft | 506 kts | 102° |
| 2026-04-20 20:13 | 50.17134 | 8.29085 | 39183 ft | 506 kts | 102° |
| 2026-04-20 20:13 | 50.15776 | 8.38059 | 39181 ft | 506 kts | 102° |
| 2026-04-20 20:14 | 50.14156 | 8.48697 | 39169 ft | 506 kts | 102° |
| 2026-04-20 20:14 | 50.12516 | 8.59396 | 39174 ft | 506 kts | 102° |
| 2026-04-20 20:15 | 50.10868 | 8.70074 | 39168 ft | 506 kts | 102° |
| 2026-04-20 20:15 | 50.09207 | 8.80768 | 39169 ft | 506 kts | 102° |
| 2026-04-20 20:16 | 50.07531 | 8.91489 | 39159 ft | 507 kts | 102° |
| 2026-04-20 20:16 | 50.05842 | 9.02216 | 39155 ft | 508 kts | 102° |
| 2026-04-20 20:17 | 50.04156 | 9.12863 | 39155 ft | 508 kts | 103° |
| 2026-04-20 20:17 | 50.02452 | 9.23550 | 39156 ft | 508 kts | 103° |
| 2026-04-20 20:18 | 50.00735 | 9.34245 | 39147 ft | 508 kts | 103° |
| 2026-04-20 20:18 | 49.99028 | 9.44820 | 39151 ft | 508 kts | 103° |
| 2026-04-20 20:19 | 49.97296 | 9.55476 | 39150 ft | 508 kts | 103° |
| 2026-04-20 20:19 | 49.95553 | 9.66131 | 39152 ft | 507 kts | 103° |
| 2026-04-20 20:20 | 49.93803 | 9.76766 | 39145 ft | 507 kts | 103° |
| 2026-04-20 20:20 | 49.92040 | 9.87405 | 39137 ft | 507 kts | 103° |
| 2026-04-20 20:21 | 49.90268 | 9.98036 | 39148 ft | 507 kts | 103° |
| 2026-04-20 20:21 | 49.88493 | 10.08623 | 39145 ft | 507 kts | 103° |
| 2026-04-20 20:22 | 49.86714 | 10.19166 | 39142 ft | 506 kts | 103° |
| 2026-04-20 20:22 | 49.84918 | 10.29742 | 39144 ft | 506 kts | 103° |
| 2026-04-20 20:23 | 49.83111 | 10.40320 | 39144 ft | 506 kts | 103° |
| 2026-04-20 20:23 | 49.81295 | 10.50887 | 39146 ft | 506 kts | 104° |
| 2026-04-20 20:24 | 49.79471 | 10.61437 | 39141 ft | 506 kts | 104° |
| 2026-04-20 20:24 | 49.77652 | 10.71896 | 39141 ft | 506 kts | 104° |
| 2026-04-20 20:25 | 49.75807 | 10.82445 | 39141 ft | 506 kts | 104° |
| 2026-04-20 20:25 | 49.73950 | 10.92995 | 39143 ft | 506 kts | 104° |
| 2026-04-20 20:26 | 49.72088 | 11.03512 | 39139 ft | 507 kts | 104° |
| 2026-04-20 20:26 | 49.70215 | 11.14035 | 39139 ft | 507 kts | 104° |
| 2026-04-20 20:27 | 49.68338 | 11.24515 | 39138 ft | 507 kts | 104° |
| 2026-04-20 20:27 | 49.66454 | 11.34966 | 39137 ft | 506 kts | 104° |
| 2026-04-20 20:28 | 49.64452 | 11.45410 | 39124 ft | 506 kts | 107° |
| 2026-04-20 20:28 | 49.62304 | 11.55764 | 39117 ft | 506 kts | 107° |
| 2026-04-20 20:29 | 49.60138 | 11.66136 | 39102 ft | 507 kts | 107° |
| 2026-04-20 20:29 | 49.57958 | 11.76536 | 39109 ft | 508 kts | 107° |
| 2026-04-20 20:30 | 49.55771 | 11.86916 | 39108 ft | 509 kts | 107° |
| 2026-04-20 20:30 | 49.53583 | 11.97252 | 39108 ft | 509 kts | 107° |
| 2026-04-20 20:31 | 49.51382 | 12.07599 | 39110 ft | 508 kts | 107° |
| 2026-04-20 20:31 | 49.49162 | 12.17981 | 39117 ft | 508 kts | 107° |
| 2026-04-20 20:32 | 49.46938 | 12.28334 | 39112 ft | 509 kts | 107° |
| 2026-04-20 20:32 | 49.44718 | 12.38610 | 39112 ft | 509 kts | 107° |
| 2026-04-20 20:33 | 49.42476 | 12.48939 | 39109 ft | 509 kts | 108° |
| 2026-04-20 20:33 | 49.41352 | 12.54101 | 38996 ft | 509 kts | 108° |
| 2026-04-20 20:33 | 49.40223 | 12.59268 | 38732 ft | 508 kts | 108° |
| 2026-04-20 20:34 | 49.39097 | 12.64412 | 38340 ft | 506 kts | 108° |
| 2026-04-20 20:34 | 49.37975 | 12.69523 | 37833 ft | 503 kts | 108° |
| 2026-04-20 20:34 | 49.36851 | 12.74627 | 37297 ft | 502 kts | 108° |
| 2026-04-20 20:34 | 49.35699 | 12.79675 | 36754 ft | 501 kts | 109° |
| 2026-04-20 20:35 | 49.34478 | 12.84698 | 36218 ft | 500 kts | 110° |
| 2026-04-20 20:35 | 49.33235 | 12.89712 | 35642 ft | 501 kts | 110° |
| 2026-04-20 20:35 | 49.31993 | 12.94719 | 35094 ft | 500 kts | 110° |
| 2026-04-20 20:35 | 49.30757 | 12.99715 | 34541 ft | 500 kts | 110° |
| 2026-04-20 20:36 | 49.29540 | 13.04646 | 33993 ft | 501 kts | 110° |
| 2026-04-20 20:36 | 49.28302 | 13.09658 | 33355 ft | 501 kts | 110° |
| 2026-04-20 20:36 | 49.27064 | 13.14662 | 32783 ft | 500 kts | 110° |
| 2026-04-20 20:36 | 49.25823 | 13.19677 | 32226 ft | 506 kts | 110° |
| 2026-04-20 20:37 | 49.24579 | 13.24687 | 31683 ft | 507 kts | 109° |
| 2026-04-20 20:37 | 49.23301 | 13.29722 | 31095 ft | 507 kts | 110° |
| 2026-04-20 20:37 | 49.21964 | 13.34738 | 30413 ft | 508 kts | 111° |
| 2026-04-20 20:37 | 49.20609 | 13.39736 | 29664 ft | 508 kts | 111° |
| 2026-04-20 20:38 | 49.19249 | 13.44727 | 28913 ft | 507 kts | 111° |
| 2026-04-20 20:38 | 49.17895 | 13.49709 | 28203 ft | 505 kts | 111° |
| 2026-04-20 20:38 | 49.16552 | 13.54669 | 27538 ft | 502 kts | 111° |
| 2026-04-20 20:38 | 49.15216 | 13.59593 | 27083 ft | 495 kts | 111° |
| 2026-04-20 20:39 | 49.13901 | 13.64428 | 26644 ft | 488 kts | 111° |
| 2026-04-20 20:39 | 49.12602 | 13.69194 | 26214 ft | 482 kts | 111° |
| 2026-04-20 20:39 | 49.11332 | 13.73851 | 25770 ft | 477 kts | 111° |
| 2026-04-20 20:39 | 49.10054 | 13.78528 | 25038 ft | 477 kts | 110° |
| 2026-04-20 20:40 | 49.08773 | 13.83220 | 24400 ft | 476 kts | 111° |
| 2026-04-20 20:40 | 49.07492 | 13.87903 | 23803 ft | 473 kts | 111° |
| 2026-04-20 20:40 | 49.06221 | 13.92525 | 23188 ft | 469 kts | 111° |
| 2026-04-20 20:40 | 49.04956 | 13.97117 | 22586 ft | 465 kts | 111° |
| 2026-04-20 20:41 | 49.03698 | 14.01674 | 21957 ft | 461 kts | 111° |
| 2026-04-20 20:41 | 49.02465 | 14.06131 | 21364 ft | 457 kts | 111° |
| 2026-04-20 20:41 | 49.01217 | 14.10638 | 20774 ft | 454 kts | 111° |
| 2026-04-20 20:41 | 49.00007 | 14.15004 | 20367 ft | 447 kts | 111° |
| 2026-04-20 20:42 | 48.98794 | 14.19368 | 20038 ft | 447 kts | 111° |
| 2026-04-20 20:42 | 48.97582 | 14.23731 | 19759 ft | 445 kts | 112° |
| 2026-04-20 20:42 | 48.96373 | 14.28064 | 19466 ft | 443 kts | 112° |
| 2026-04-20 20:42 | 48.95030 | 14.32292 | 19170 ft | 442 kts | 118° |
| 2026-04-20 20:43 | 48.93468 | 14.36226 | 18885 ft | 440 kts | 123° |
| 2026-04-20 20:43 | 48.91662 | 14.39998 | 18590 ft | 438 kts | 127° |
| 2026-04-20 20:43 | 48.89805 | 14.43663 | 18255 ft | 436 kts | 128° |
| 2026-04-20 20:43 | 48.87938 | 14.47315 | 17854 ft | 434 kts | 128° |
| 2026-04-20 20:44 | 48.86092 | 14.50930 | 17441 ft | 431 kts | 128° |
| 2026-04-20 20:44 | 48.84277 | 14.54494 | 17252 ft | 419 kts | 128° |
| 2026-04-20 20:44 | 48.82529 | 14.57936 | 17169 ft | 404 kts | 128° |
| 2026-04-20 20:44 | 48.80845 | 14.61260 | 17085 ft | 389 kts | 128° |
| 2026-04-20 20:45 | 48.79227 | 14.64446 | 17060 ft | 373 kts | 128° |
| 2026-04-20 20:45 | 48.77672 | 14.67500 | 17061 ft | 358 kts | 128° |
| 2026-04-20 20:45 | 48.76177 | 14.70434 | 17081 ft | 347 kts | 129° |
| 2026-04-20 20:45 | 48.74718 | 14.73291 | 17087 ft | 346 kts | 129° |
| 2026-04-20 20:46 | 48.73243 | 14.76179 | 17020 ft | 342 kts | 129° |
| 2026-04-20 20:46 | 48.71793 | 14.79016 | 16584 ft | 342 kts | 129° |
| 2026-04-20 20:46 | 48.70305 | 14.81922 | 15910 ft | 350 kts | 129° |
| 2026-04-20 20:46 | 48.68811 | 14.84836 | 15522 ft | 348 kts | 129° |
| 2026-04-20 20:47 | 48.67330 | 14.87724 | 15213 ft | 344 kts | 129° |
| 2026-04-20 20:47 | 48.65887 | 14.90532 | 14915 ft | 339 kts | 129° |
| 2026-04-20 20:47 | 48.64442 | 14.93343 | 14597 ft | 335 kts | 129° |
| 2026-04-20 20:47 | 48.63016 | 14.96116 | 14295 ft | 332 kts | 130° |
| 2026-04-20 20:48 | 48.61600 | 14.98861 | 13955 ft | 330 kts | 130° |
| 2026-04-20 20:48 | 48.60190 | 15.01591 | 13535 ft | 328 kts | 130° |
| 2026-04-20 20:48 | 48.58951 | 15.04480 | 13179 ft | 328 kts | 116° |
| 2026-04-20 20:48 | 48.58175 | 15.07704 | 12809 ft | 325 kts | 105° |
| 2026-04-20 20:49 | 48.57610 | 15.10996 | 12449 ft | 322 kts | 103° |
| 2026-04-20 20:49 | 48.57083 | 15.14280 | 12092 ft | 320 kts | 103° |
| 2026-04-20 20:49 | 48.56553 | 15.17543 | 11726 ft | 318 kts | 104° |
| 2026-04-20 20:49 | 48.56015 | 15.20767 | 11371 ft | 315 kts | 104° |
| 2026-04-20 20:50 | 48.55469 | 15.23980 | 11020 ft | 313 kts | 105° |
| 2026-04-20 20:50 | 48.54924 | 15.27151 | 10693 ft | 310 kts | 105° |
| 2026-04-20 20:50 | 48.54385 | 15.30260 | 10355 ft | 308 kts | 105° |
| 2026-04-20 20:50 | 48.53842 | 15.33385 | 10028 ft | 305 kts | 105° |
| 2026-04-20 20:51 | 48.53304 | 15.36467 | 9709 ft | 302 kts | 105° |
| 2026-04-20 20:51 | 48.52769 | 15.39534 | 9343 ft | 300 kts | 105° |
| 2026-04-20 20:51 | 48.52253 | 15.42573 | 8981 ft | 298 kts | 103° |
| 2026-04-20 20:51 | 48.51900 | 15.45645 | 8636 ft | 296 kts | 96° |
| 2026-04-20 20:52 | 48.51705 | 15.48729 | 8278 ft | 294 kts | 95° |
| 2026-04-20 20:52 | 48.51543 | 15.51800 | 7948 ft | 292 kts | 94° |
| 2026-04-20 20:52 | 48.51384 | 15.54850 | 7596 ft | 291 kts | 94° |
| 2026-04-20 20:52 | 48.51221 | 15.57853 | 7264 ft | 288 kts | 95° |
| 2026-04-20 20:53 | 48.51053 | 15.60874 | 6947 ft | 287 kts | 95° |
| 2026-04-20 20:53 | 48.50884 | 15.63870 | 6606 ft | 286 kts | 95° |
| 2026-04-20 20:53 | 48.50713 | 15.66860 | 6288 ft | 284 kts | 95° |
| 2026-04-20 20:53 | 48.50541 | 15.69806 | 6127 ft | 282 kts | 95° |
| 2026-04-20 20:54 | 48.50369 | 15.72761 | 6092 ft | 282 kts | 95° |
| 2026-04-20 20:54 | 48.50197 | 15.75714 | 6082 ft | 282 kts | 94° |
| 2026-04-20 20:54 | 48.50022 | 15.78667 | 6075 ft | 282 kts | 95° |
| 2026-04-20 20:54 | 48.49849 | 15.81613 | 6063 ft | 282 kts | 95° |
| 2026-04-20 20:55 | 48.49675 | 15.84561 | 6073 ft | 282 kts | 95° |
| 2026-04-20 20:55 | 48.49560 | 15.86515 | 6061 ft | 281 kts | 95° |
| 2026-04-20 20:55 | 48.49384 | 15.89459 | 6071 ft | 281 kts | 95° |
| 2026-04-20 20:55 | 48.49209 | 15.92399 | 6067 ft | 281 kts | 95° |
| 2026-04-20 20:56 | 48.49030 | 15.95345 | 6056 ft | 282 kts | 95° |
| 2026-04-20 20:56 | 48.48852 | 15.98307 | 6057 ft | 281 kts | 95° |
| 2026-04-20 20:56 | 48.48673 | 16.01250 | 6068 ft | 281 kts | 95° |
| 2026-04-20 20:56 | 48.48493 | 16.04196 | 6061 ft | 281 kts | 95° |
| 2026-04-20 20:57 | 48.48315 | 16.07112 | 6064 ft | 281 kts | 95° |
| 2026-04-20 20:57 | 48.48139 | 16.10063 | 6055 ft | 282 kts | 93° |
| 2026-04-20 20:57 | 48.48015 | 16.13012 | 6067 ft | 282 kts | 93° |
| 2026-04-20 20:57 | 48.47904 | 16.15967 | 6055 ft | 282 kts | 92° |
| 2026-04-20 20:58 | 48.47792 | 16.18930 | 6071 ft | 282 kts | 92° |
| 2026-04-20 20:58 | 48.47679 | 16.21873 | 6068 ft | 280 kts | 92° |
| 2026-04-20 20:58 | 48.47566 | 16.24819 | 6062 ft | 281 kts | 92° |
| 2026-04-20 20:58 | 48.47454 | 16.27721 | 6053 ft | 280 kts | 92° |
| 2026-04-20 20:59 | 48.47171 | 16.30628 | 6024 ft | 282 kts | 112° |
| 2026-04-20 20:59 | 48.46087 | 16.33079 | 6062 ft | 282 kts | 133° |
| 2026-04-20 20:59 | 48.44712 | 16.35186 | 6070 ft | 282 kts | 136° |
| 2026-04-20 20:59 | 48.43317 | 16.37263 | 6067 ft | 281 kts | 135° |
| 2026-04-20 21:00 | 48.41949 | 16.39390 | 6064 ft | 281 kts | 134° |
| 2026-04-20 21:00 | 48.40616 | 16.41552 | 6060 ft | 282 kts | 133° |
| 2026-04-20 21:00 | 48.39295 | 16.43751 | 6063 ft | 282 kts | 132° |
| 2026-04-20 21:00 | 48.37985 | 16.45965 | 6067 ft | 282 kts | 132° |
| 2026-04-20 21:01 | 48.36698 | 16.48155 | 6065 ft | 282 kts | 132° |
| 2026-04-20 21:01 | 48.35392 | 16.50379 | 6062 ft | 282 kts | 132° |
| 2026-04-20 21:01 | 48.34082 | 16.52611 | 6069 ft | 282 kts | 132° |
| 2026-04-20 21:01 | 48.32798 | 16.54796 | 6057 ft | 282 kts | 132° |
| 2026-04-20 21:02 | 48.31490 | 16.57018 | 6070 ft | 283 kts | 131° |
| 2026-04-20 21:02 | 48.30181 | 16.59243 | 6064 ft | 282 kts | 131° |
| 2026-04-20 21:02 | 48.28852 | 16.61430 | 6053 ft | 282 kts | 136° |
| 2026-04-20 21:02 | 48.27336 | 16.63309 | 6070 ft | 282 kts | 146° |
| 2026-04-20 21:03 | 48.25639 | 16.64790 | 6074 ft | 281 kts | 156° |
| 2026-04-20 21:03 | 48.23841 | 16.65829 | 6072 ft | 280 kts | 164° |
| 2026-04-20 21:03 | 48.21958 | 16.66630 | 6078 ft | 280 kts | 166° |
| 2026-04-20 21:03 | 48.20072 | 16.67386 | 6079 ft | 280 kts | 166° |
| 2026-04-20 21:04 | 48.18188 | 16.68146 | 6082 ft | 280 kts | 166° |
| 2026-04-20 21:04 | 48.16330 | 16.68909 | 6080 ft | 280 kts | 166° |
| 2026-04-20 21:04 | 48.14442 | 16.69691 | 6080 ft | 280 kts | 166° |
| 2026-04-20 21:04 | 48.12551 | 16.70480 | 6078 ft | 280 kts | 166° |
| 2026-04-20 21:05 | 48.10670 | 16.71265 | 6074 ft | 280 kts | 166° |
| 2026-04-20 21:05 | 48.08791 | 16.72049 | 6082 ft | 280 kts | 166° |
| 2026-04-20 21:05 | 48.06913 | 16.72830 | 6066 ft | 281 kts | 165° |
| 2026-04-20 21:05 | 48.05022 | 16.73613 | 6066 ft | 282 kts | 165° |
| 2026-04-20 21:06 | 48.03149 | 16.74393 | 6074 ft | 282 kts | 165° |
| 2026-04-20 21:06 | 48.01250 | 16.75185 | 6072 ft | 282 kts | 165° |
| 2026-04-20 21:06 | 47.99362 | 16.75970 | 6069 ft | 282 kts | 165° |
| 2026-04-20 21:06 | 47.97460 | 16.76760 | 6071 ft | 282 kts | 165° |
| 2026-04-20 21:07 | 47.95592 | 16.77532 | 6067 ft | 282 kts | 165° |
| 2026-04-20 21:07 | 47.93701 | 16.78313 | 6064 ft | 282 kts | 165° |
| 2026-04-20 21:07 | 47.91803 | 16.79097 | 6062 ft | 282 kts | 165° |
| 2026-04-20 21:07 | 47.89913 | 16.79878 | 6062 ft | 282 kts | 165° |
| 2026-04-20 21:08 | 47.88021 | 16.80642 | 6042 ft | 281 kts | 169° |
| 2026-04-20 21:08 | 47.86108 | 16.80632 | 5792 ft | 274 kts | 200° |
| 2026-04-20 21:08 | 47.84555 | 16.79112 | 5347 ft | 268 kts | 234° |
| 2026-04-20 21:08 | 47.83783 | 16.76621 | 4906 ft | 265 kts | 262° |
| 2026-04-20 21:09 | 47.83800 | 16.73922 | 4548 ft | 258 kts | 285° |
| 2026-04-20 21:09 | 47.84336 | 16.71427 | 4252 ft | 254 kts | 300° |
| 2026-04-20 21:09 | 47.85480 | 16.69485 | 3929 ft | 249 kts | 325° |
| 2026-04-20 21:09 | 47.87010 | 16.68315 | 3636 ft | 246 kts | 340° |
| 2026-04-20 21:10 | 47.88647 | 16.67593 | 3352 ft | 245 kts | 346° |
| 2026-04-20 21:10 | 47.90295 | 16.66972 | 3082 ft | 242 kts | 346° |
| 2026-04-20 21:10 | 47.91890 | 16.66349 | 3022 ft | 231 kts | 345° |
| 2026-04-20 21:10 | 47.93384 | 16.65731 | 3006 ft | 219 kts | 344° |
| 2026-04-20 21:11 | 47.94800 | 16.65129 | 3024 ft | 202 kts | 344° |
| 2026-04-20 21:11 | 47.96075 | 16.64581 | 3016 ft | 179 kts | 344° |
| 2026-04-20 21:11 | 47.97230 | 16.64085 | 2992 ft | 169 kts | 344° |
| 2026-04-20 21:11 | 47.98330 | 16.63614 | 2827 ft | 157 kts | 344° |
| 2026-04-20 21:12 | 47.99367 | 16.63170 | 2654 ft | 154 kts | 344° |
| 2026-04-20 21:12 | 48.00395 | 16.62732 | 2428 ft | 153 kts | 344° |
| 2026-04-20 21:12 | 48.01419 | 16.62296 | 2201 ft | 152 kts | 344° |
| 2026-04-20 21:12 | 48.02424 | 16.61869 | 1977 ft | 152 kts | 344° |
| 2026-04-20 21:13 | 48.03441 | 16.61437 | 1777 ft | 151 kts | 343° |
| 2026-04-20 21:13 | 48.04454 | 16.61007 | 1565 ft | 151 kts | 343° |
| 2026-04-20 21:13 | 48.05464 | 16.60575 | 1348 ft | 150 kts | 344° |
| 2026-04-20 21:13 | 48.06474 | 16.60148 | 1123 ft | 149 kts | 344° |
| 2026-04-20 21:14 | 48.07491 | 16.59721 | 943 ft | 156 kts | 345° |
| 2026-04-20 21:14 | 48.08548 | 16.59273 | 761 ft | 159 kts | 345° |
| 2026-04-20 21:14 | 48.09617 | 16.58818 | 638 ft | 159 kts | 346° |
| 2026-04-20 21:14 | 48.10528 | 16.58431 | 627 ft | 105 kts | 344° |
| 2026-04-20 21:15 | 48.11083 | 16.58198 | 629 ft | 73 kts | 344° |
| 2026-04-20 21:15 | 48.11546 | 16.58001 | 624 ft | 61 kts | 344° |
| 2026-04-20 21:15 | 48.11796 | 16.57885 | 631 ft | 26 kts | 329° |
| 2026-04-20 21:15 | 48.11859 | 16.57739 | 625 ft | 8 kts | 277° |
| 2026-04-20 21:16 | 48.11856 | 16.57661 | 623 ft | 9 kts | 260° |
| 2026-04-20 21:16 | 48.11844 | 16.57590 | 630 ft | 5 kts | 253° |
| 2026-04-20 21:16 | 48.11837 | 16.57555 | 625 ft | 0 kts | 254° |
| 2026-04-20 21:17 | 48.11834 | 16.57539 | 626 ft | 3 kts | 254° |
| 2026-04-20 21:18 | 48.11824 | 16.57490 | 627 ft | 7 kts | 254° |
| 2026-04-20 21:18 | 48.11808 | 16.57408 | 627 ft | 10 kts | 247° |
| 2026-04-20 21:18 | 48.11743 | 16.57376 | 631 ft | 12 kts | 171° |
| 2026-04-20 21:18 | 48.11649 | 16.57414 | 629 ft | 16 kts | 163° |
| 2026-04-20 21:19 | 48.11533 | 16.57458 | 630 ft | 16 kts | 177° |
| 2026-04-20 21:19 | 48.11425 | 16.57413 | 630 ft | 18 kts | 204° |
| 2026-04-20 21:19 | 48.11319 | 16.57332 | 629 ft | 9 kts | 224° |
| 2026-04-20 21:20 | 48.11347 | 16.57133 | 627 ft | 13 kts | 295° |
| 2026-04-20 21:20 | 48.11393 | 16.56991 | 629 ft | 17 kts | 296° |
| 2026-04-20 21:20 | 48.11450 | 16.56815 | 628 ft | 20 kts | 296° |
| 2026-04-20 21:20 | 48.11517 | 16.56611 | 631 ft | 23 kts | 296° |
| 2026-04-20 21:21 | 48.11591 | 16.56385 | 627 ft | 26 kts | 296° |
| 2026-04-20 21:21 | 48.11672 | 16.56135 | 630 ft | 28 kts | 296° |
| 2026-04-20 21:21 | 48.11760 | 16.55867 | 628 ft | 29 kts | 296° |
| 2026-04-20 21:21 | 48.11847 | 16.55603 | 630 ft | 25 kts | 296° |
| 2026-04-20 21:22 | 48.11913 | 16.55358 | 625 ft | 26 kts | 295° |
| 2026-04-20 21:22 | 48.11983 | 16.55146 | 630 ft | 15 kts | 296° |
| 2026-04-20 21:22 | 48.11993 | 16.55115 | 627 ft | 1 kts | 296° |
| 2026-04-20 21:22 | 48.12002 | 16.55087 | 624 ft | 5 kts | 296° |
| 2026-04-20 21:23 | 48.12020 | 16.55034 | 630 ft | 4 kts | 298° |
| 2026-04-20 21:23 | 48.12043 | 16.55018 | 630 ft | 5 kts | 357° |
| 2026-04-20 21:23 | 48.12083 | 16.55032 | 630 ft | 5 kts | 20° |
| 2026-04-20 21:23 | 48.12106 | 16.55046 | 625 ft | 2 kts | 23° |
| 2026-04-20 21:24 | 48.12110 | 16.55049 | 629 ft | 0 kts | 24° |